Time;durP1;ratioP1;P1;durP2;ratioP2;P2;SDS_P1;SDS_P2;PMS_P1;PMS_P2;Temp;Humidity;BMP_temperature;BMP_pressure;BME280_temperature;BME280_humidity;BME280_pressure;Samples;Min_cycle;Max_cycle;Signal;HPM_P1;HPM_P2
2022/04/20 00:00:34;;;;;;;6.25;3.47;;;;;;;7.22;60.11;99907.81;5092905;28;20032;-62
2022/04/20 00:03:00;;;;;;;8.00;3.63;;;;;;;7.11;60.66;99909.34;5093288;28;20020;-67
2022/04/20 00:05:25;;;;;;;6.30;3.60;;;;;;;7.04;60.62;99900.06;5092601;28;20028;-67
2022/04/20 00:07:51;;;;;;;5.35;3.25;;;;;;;6.98;60.44;99900.47;5092667;28;20503;-66
2022/04/20 00:10:16;;;;;;;9.75;3.55;;;;;;;7.12;60.23;99915.56;5092604;28;20516;-68
2022/04/20 00:12:42;;;;;;;8.27;4.15;;;;;;;6.92;60.74;99917.69;5091392;28;20544;-65
2022/04/20 00:15:08;;;;;;;7.20;3.50;;;;;;;6.96;60.03;99926.34;5092302;28;20028;-67
2022/04/20 00:17:33;;;;;;;6.13;3.10;;;;;;;7.11;59.50;99914.69;5092492;28;20066;-62
2022/04/20 00:19:59;;;;;;;5.75;3.55;;;;;;;7.01;59.98;99924.22;5092397;28;20453;-66
2022/04/20 00:22:24;;;;;;;4.32;3.03;;;;;;;6.87;59.87;99923.31;5092663;28;20055;-65
2022/04/20 00:24:50;;;;;;;5.10;3.55;;;;;;;6.84;60.24;99918.16;5092421;28;20191;-67
2022/04/20 00:27:15;;;;;;;7.05;3.25;;;;;;;6.66;61.15;99927.34;5092578;28;20032;-66
2022/04/20 00:29:41;;;;;;;4.30;3.40;;;;;;;6.83;60.84;99924.44;5092506;28;20039;-66
2022/04/20 00:32:07;;;;;;;6.43;3.72;;;;;;;7.08;59.89;99914.88;5092526;28;20028;-66
2022/04/20 00:34:33;;;;;;;5.88;3.83;;;;;;;6.93;60.16;99908.75;5092507;28;20066;-67
2022/04/20 00:36:58;;;;;;;6.00;3.25;;;;;;;6.90;60.64;99919.59;5091867;28;20032;-66
2022/04/20 00:39:24;;;;;;;6.40;3.88;;;;;;;6.90;60.35;99911.59;5092365;28;20875;-65
2022/04/20 00:41:51;;;;;;;5.65;2.55;;;;;;;7.15;59.25;99915.34;5092026;28;20101;-65
2022/04/20 00:44:17;;;;;;;5.53;3.22;;;;;;;7.02;59.75;99909.97;5091261;28;20047;-65
2022/04/20 00:46:46;;;;;;;4.30;3.05;;;;;;;6.69;60.64;99901.38;5092303;28;20028;-64
2022/04/20 00:49:13;;;;;;;4.57;3.40;;;;;;;6.71;60.48;99902.13;5092108;28;20044;-67
2022/04/20 00:51:51;;;;;;;5.80;3.40;;;;;;;6.61;60.74;99907.16;5092164;28;20078;-66
2022/04/20 00:54:17;;;;;;;4.70;3.33;;;;;;;6.59;60.97;99910.91;5092218;28;20127;-66
2022/04/20 00:56:42;;;;;;;3.95;3.20;;;;;;;6.52;61.01;99906.91;5092049;28;20468;-66
2022/04/20 00:59:08;;;;;;;6.90;3.20;;;;;;;6.65;60.39;99917.66;5091946;28;20361;-66
2022/04/20 01:01:34;;;;;;;6.78;3.13;;;;;;;6.00;60.24;99853.31;5092286;28;20032;-65
2022/04/20 01:04:00;;;;;;;3.97;2.70;;;;;;;6.24;60.37;99928.09;5092168;28;20035;-66
2022/04/20 01:06:25;;;;;;;6.15;3.03;;;;;;;6.21;61.09;99925.63;5092192;28;20263;-66
2022/04/20 01:08:50;;;;;;;4.20;3.10;;;;;;;6.21;60.38;99920.31;5091834;28;20088;-66
2022/04/20 01:11:16;;;;;;;4.05;3.10;;;;;;;6.32;60.03;99914.31;5091812;28;20060;-68
2022/04/20 01:13:41;;;;;;;3.22;2.85;;;;;;;6.40;59.38;99917.34;5092052;28;20032;-67
2022/04/20 01:16:08;;;;;;;4.20;2.83;;;;;;;6.34;59.27;99909.75;5091256;28;20035;-67
2022/04/20 01:18:40;;;;;;;5.13;2.92;;;;;;;6.63;58.01;99917.72;5091807;28;20027;-65
2022/04/20 01:21:07;;;;;;;3.90;3.00;;;;;;;6.50;59.12;99908.78;5091689;28;20516;-66
2022/04/20 01:23:32;;;;;;;3.45;2.58;;;;;;;6.31;59.10;99913.47;5092039;28;20040;-66
2022/04/20 01:25:58;;;;;;;4.63;2.70;;;;;;;6.20;59.05;99902.63;5091322;28;20090;-67
2022/04/20 01:28:23;;;;;;;4.68;3.03;;;;;;;6.28;59.09;99911.00;5091462;28;20145;-66
2022/04/20 01:30:49;;;;;;;3.80;2.75;;;;;;;6.29;58.72;99906.53;5091548;28;20028;-66
2022/04/20 01:33:14;;;;;;;5.80;2.15;;;;;;;6.53;57.72;99919.28;5091507;28;20377;-66
2022/04/20 01:35:40;;;;;;;4.90;3.30;;;;;;;6.35;58.17;99922.13;5091253;28;20020;-66
2022/04/20 01:38:05;;;;;;;5.10;3.25;;;;;;;6.04;58.67;99889.44;5091540;28;20035;-67
2022/04/20 01:40:31;;;;;;;3.33;2.50;;;;;;;6.24;58.00;99925.44;5091412;28;20032;-66
2022/04/20 01:42:57;;;;;;;4.85;2.97;;;;;;;6.13;58.13;99920.75;5090010;28;20447;-66
2022/04/20 01:45:22;;;;;;;4.05;3.10;;;;;;;6.03;58.43;99922.28;5091329;28;20028;-66
2022/04/20 01:47:48;;;;;;;4.90;2.95;;;;;;;5.97;58.41;99915.50;5091212;28;20031;-66
2022/04/20 01:50:13;;;;;;;5.53;3.28;;;;;;;6.06;57.89;99911.47;5091392;28;20066;-66
2022/04/20 01:52:39;;;;;;;4.35;2.72;;;;;;;6.15;57.53;99916.19;5091226;28;20032;-66
2022/04/20 01:55:05;;;;;;;3.45;2.72;;;;;;;5.93;58.24;99913.97;5091188;28;20034;-67
2022/04/20 01:57:30;;;;;;;5.20;2.67;;;;;;;5.96;58.52;99905.81;5091329;28;20051;-66
2022/04/20 01:59:56;;;;;;;4.28;2.72;;;;;;;5.69;58.16;99871.09;5090896;28;20469;-66
2022/04/20 02:02:38;;;;;;;3.30;2.60;;;;;;;5.96;57.20;99894.31;5091112;28;20055;-65
2022/04/20 02:05:09;;;;;;;4.05;2.80;;;;;;;5.94;57.30;99913.03;5091050;28;20059;-64
2022/04/20 02:07:35;;;;;;;3.10;2.80;;;;;;;5.71;56.80;99863.91;5091104;28;20028;-65
2022/04/20 02:10:03;;;;;;;5.50;3.05;;;;;;;5.76;57.21;99901.66;5089368;28;20028;-66
2022/04/20 02:12:29;;;;;;;3.53;2.53;;;;;;;5.86;56.53;99897.53;5091024;28;20024;-66
2022/04/20 02:14:54;;;;;;;4.10;2.80;;;;;;;5.82;56.36;99895.13;5090743;28;20476;-65
2022/04/20 02:17:20;;;;;;;5.07;2.63;;;;;;;6.09;55.33;99900.63;5090849;28;20498;-66
2022/04/20 02:19:45;;;;;;;4.55;2.80;;;;;;;6.08;54.03;99906.03;5090975;28;20032;-66
2022/04/20 02:22:11;;;;;;;3.53;2.63;;;;;;;5.97;54.88;99896.00;5090700;28;20401;-64
2022/04/20 02:24:37;;;;;;;3.90;2.45;;;;;;;6.01;53.91;99893.13;5090884;28;20496;-65
2022/04/20 02:27:03;;;;;;;4.75;2.20;;;;;;;6.20;53.58;99892.00;5092464;28;20066;-68
2022/04/20 02:29:28;;;;;;;4.47;2.70;;;;;;;6.06;53.55;99884.88;5094932;28;20439;-66
2022/04/20 02:31:54;;;;;;;3.90;2.17;;;;;;;6.11;52.74;99856.19;5095040;28;20028;-66
2022/04/20 02:34:19;;;;;;;4.60;2.38;;;;;;;6.00;53.78;99877.22;5094890;28;20059;-66
2022/04/20 02:36:45;;;;;;;2.88;2.03;;;;;;;6.13;52.87;99880.88;5094647;28;20069;-65
2022/04/20 02:39:11;;;;;;;4.93;2.55;;;;;;;6.08;52.50;99880.31;5095209;28;20111;-62
2022/04/20 02:41:38;;;;;;;3.75;2.50;;;;;;;6.09;52.51;99883.81;5095201;28;20039;-68
2022/04/20 02:44:05;;;;;;;3.45;2.05;;;;;;;6.22;51.71;99881.25;5094628;28;20043;-66
2022/04/20 02:46:30;;;;;;;3.90;1.95;;;;;;;6.21;51.51;99883.09;5093417;28;20028;-67
2022/04/20 02:48:56;;;;;;;5.70;2.70;;;;;;;6.07;51.87;99883.94;5094739;28;20449;-66
2022/04/20 02:51:21;;;;;;;8.02;2.70;;;;;;;6.03;51.08;99843.38;5094694;28;20035;-66
2022/04/20 02:53:47;;;;;;;4.57;2.15;;;;;;;6.16;50.21;99888.66;5093193;28;20101;-66
2022/04/20 02:56:12;;;;;;;6.50;2.40;;;;;;;6.22;50.33;99891.91;5094497;28;20538;-63
2022/04/20 02:58:38;;;;;;;3.20;2.10;;;;;;;6.21;49.33;99874.22;5094807;28;20038;-67
2022/04/20 03:01:03;;;;;;;2.80;2.03;;;;;;;6.45;48.04;99886.00;5094495;28;20119;-66
2022/04/20 03:03:29;;;;;;;3.83;2.65;;;;;;;6.21;49.12;99891.06;5092948;28;20396;-67
2022/04/20 03:05:54;;;;;;;2.35;1.70;;;;;;;6.25;48.07;99889.91;5093909;28;20024;-66
2022/04/20 03:08:21;;;;;;;3.88;1.55;;;;;;;6.50;47.01;99908.78;5094326;28;20103;-67
2022/04/20 03:10:46;;;;;;;3.95;1.80;;;;;;;6.51;46.57;99902.53;5094459;28;20032;-66
2022/04/20 03:13:12;;;;;;;2.78;1.90;;;;;;;6.60;45.41;99891.31;5094511;28;20081;-66
2022/04/20 03:15:37;;;;;;;7.90;2.15;;;;;;;6.61;46.14;99901.00;5094073;28;20028;-68
2022/04/20 03:18:03;;;;;;;4.20;1.90;;;;;;;6.73;45.09;99900.22;5094107;28;20439;-67
2022/04/20 03:20:28;;;;;;;5.63;1.88;;;;;;;6.67;45.81;99908.59;5093765;28;20556;-67
2022/04/20 03:22:54;;;;;;;3.20;2.13;;;;;;;6.81;45.21;99912.22;5093515;28;20043;-67
2022/04/20 03:25:19;;;;;;;3.60;1.58;;;;;;;7.11;43.47;99911.19;5093893;28;20141;-67
2022/04/20 03:27:45;;;;;;;7.20;2.08;;;;;;;7.03;43.50;99896.56;5093608;28;20311;-66
2022/04/20 03:30:14;;;;;;;2.53;1.80;;;;;;;7.00;43.88;99909.22;5093875;28;20020;-66
2022/04/20 03:32:40;;;;;;;4.15;1.88;;;;;;;7.19;43.09;99919.50;5093834;28;20366;-65
2022/04/20 03:35:06;;;;;;;5.43;1.92;;;;;;;7.45;42.41;99922.28;5093468;28;20100;-64
2022/04/20 03:37:32;;;;;;;5.10;2.17;;;;;;;7.97;41.65;99912.59;5093471;28;20125;-66
2022/04/20 03:39:59;;;;;;;7.65;2.17;;;;;;;9.27;38.64;99897.25;5092813;28;20472;-66
2022/04/20 03:42:26;;;;;;;3.92;1.63;;;;;;;10.79;35.90;99908.03;5093328;28;20024;-66
2022/04/20 03:44:51;;;;;;;3.55;1.48;;;;;;;11.57;33.05;99906.13;5093723;28;20032;-66
2022/04/20 03:47:17;;;;;;;3.22;1.67;;;;;;;12.26;31.48;99898.59;5093387;28;20031;-64
2022/04/20 03:49:42;;;;;;;6.68;1.92;;;;;;;13.49;29.54;99910.16;5093374;28;20032;-66
2022/04/20 03:52:08;;;;;;;3.97;1.75;;;;;;;14.48;27.86;99894.69;5093317;28;20101;-65
2022/04/20 03:54:36;;;;;;;1.48;1.30;;;;;;;14.96;27.05;99896.47;5093165;28;20055;-67
2022/04/20 03:57:10;;;;;;;4.72;2.00;;;;;;;15.19;25.80;99902.28;5093184;28;20077;-66
2022/04/20 03:59:37;;;;;;;6.32;2.00;;;;;;;16.15;24.67;99897.25;5093326;28;20463;-66
2022/04/20 04:02:06;;;;;;;3.25;1.63;;;;;;;17.22;24.15;99894.22;5092986;28;20032;-67
2022/04/20 04:04:33;;;;;;;5.30;1.75;;;;;;;17.45;21.87;99896.28;5092758;28;20389;-66
2022/04/20 04:06:59;;;;;;;4.28;1.80;;;;;;;17.84;21.35;99887.50;5091930;28;20448;-67
2022/04/20 04:09:24;;;;;;;6.25;1.98;;;;;;;18.19;20.75;99887.31;5093112;28;20085;-67
2022/04/20 04:11:50;;;;;;;5.93;1.88;;;;;;;18.80;20.09;99875.94;5092745;28;20408;-65
2022/04/20 04:14:17;;;;;;;5.63;2.10;;;;;;;18.92;19.58;99873.69;5093355;28;20024;-63
2022/04/20 04:16:43;;;;;;;3.28;1.88;;;;;;;19.72;19.56;99881.66;5093266;28;20024;-67
2022/04/20 04:19:11;;;;;;;8.57;2.10;;;;;;;19.47;18.64;99852.00;5092879;28;20105;-65
2022/04/20 04:21:38;;;;;;;3.13;1.75;;;;;;;20.63;17.81;99869.91;5091005;28;20099;-66
2022/04/20 04:24:08;;;;;;;5.32;2.33;;;;;;;20.70;17.94;99873.56;5092653;28;20151;-66
2022/04/20 04:26:35;;;;;;;5.15;2.05;;;;;;;20.99;17.08;99863.69;5092730;28;20020;-67
2022/04/20 04:29:00;;;;;;;4.93;1.70;;;;;;;21.05;16.30;99867.50;5092579;28;20526;-67
2022/04/20 04:31:26;;;;;;;3.42;1.73;;;;;;;22.07;15.77;99864.72;5092344;28;20114;-66
2022/04/20 04:33:52;;;;;;;5.75;1.67;;;;;;;22.92;14.74;99850.94;5092744;28;20377;-69
2022/04/20 04:36:18;;;;;;;5.55;1.60;;;;;;;22.04;14.33;99855.06;5092675;28;20043;-63
2022/04/20 04:38:43;;;;;;;7.30;1.92;;;;;;;21.47;15.05;99849.53;5092639;28;20032;-67
2022/04/20 04:41:09;;;;;;;5.05;2.33;;;;;;;22.25;14.82;99864.22;5092360;28;20514;-64
2022/04/20 04:43:35;;;;;;;7.28;1.90;;;;;;;22.46;14.00;99851.53;5092599;28;20028;-68
2022/04/20 04:48:48;;;;;;;13.40;2.17;;;;;;;23.12;13.45;99861.09;5092697;28;20024;-67
2022/04/20 04:51:15;;;;;;;5.28;1.80;;;;;;;24.39;12.83;99864.97;5091033;28;20111;-68
2022/04/20 04:53:40;;;;;;;6.53;1.98;;;;;;;24.03;12.28;99871.75;5091366;28;20036;-67
2022/04/20 04:56:06;;;;;;;7.07;1.88;;;;;;;23.58;12.06;99867.72;5092505;28;20032;-68
2022/04/20 04:58:31;;;;;;;8.55;1.85;;;;;;;24.08;11.99;99883.75;5092309;28;20089;-68
2022/04/20 05:01:00;;;;;;;4.25;1.75;;;;;;;24.12;12.38;99877.84;5091904;28;20032;-70
2022/04/20 05:03:26;;;;;;;4.00;1.55;;;;;;;24.30;11.37;99868.97;5091956;28;20106;-68
2022/04/20 05:05:52;;;;;;;6.28;1.50;;;;;;;24.60;11.19;99873.97;5091917;28;20036;-69
2022/04/20 05:08:17;;;;;;;3.53;1.63;;;;;;;23.90;11.27;99870.69;5092569;28;20103;-68
2022/04/20 05:10:43;;;;;;;3.67;2.00;;;;;;;24.14;11.05;99879.31;5091791;28;20028;-69
2022/04/20 05:13:09;;;;;;;3.50;1.48;;;;;;;24.90;10.81;99859.75;5091773;28;20032;-71
2022/04/20 05:15:35;;;;;;;5.80;1.50;;;;;;;26.14;9.71;99885.91;5090717;28;20039;-69
2022/04/20 05:18:00;;;;;;;7.80;1.50;;;;;;;27.35;9.39;99900.19;5090532;28;20115;-68
2022/04/20 05:20:26;;;;;;;9.00;1.73;;;;;;;27.80;8.80;99890.66;5091630;28;20036;-68
2022/04/20 05:22:52;;;;;;;10.57;1.90;;;;;;;28.92;8.50;99907.28;5091959;28;20039;-67
2022/04/20 05:25:18;;;;;;;6.07;1.30;;;;;;;27.26;8.04;99888.69;5091672;28;20392;-68
2022/04/20 05:27:44;;;;;;;2.97;1.38;;;;;;;26.85;8.39;99906.78;5091631;28;20460;-68
2022/04/20 05:30:13;;;;;;;5.28;1.40;;;;;;;26.54;8.50;99911.31;5090220;28;20107;-68
2022/04/20 05:32:39;;;;;;;3.70;1.10;;;;;;;26.13;8.15;99900.69;5091578;28;20024;-68
2022/04/20 05:35:05;;;;;;;11.02;1.40;;;;;;;26.35;8.91;99900.31;5091239;28;20043;-67
2022/04/20 05:42:59;;;;;;;5.82;1.27;;;;;;;29.91;6.70;99909.13;5091333;28;20068;-68
2022/04/20 05:45:25;;;;;;;6.55;1.50;;;;;;;31.27;5.90;99908.00;5091216;28;20036;-69
2022/04/20 05:47:52;;;;;;;9.75;1.35;;;;;;;32.09;5.43;99918.22;5091887;28;20028;-68
2022/04/20 05:50:18;;;;;;;7.88;1.20;;;;;;;31.74;5.51;99894.63;5091487;28;20036;-67
2022/04/20 05:52:43;;;;;;;5.85;1.67;;;;;;;31.84;5.44;99897.53;5091185;28;20039;-68
2022/04/20 05:55:09;;;;;;;6.50;1.40;;;;;;;31.38;5.15;99905.38;5091396;28;20036;-68
2022/04/20 05:57:37;;;;;;;4.80;1.35;;;;;;;31.32;5.22;99897.00;5091176;28;20510;-68
2022/04/20 06:00:05;;;;;;;6.13;1.40;;;;;;;32.13;5.61;99916.56;5090693;28;20043;-67
2022/04/20 06:02:34;;;;;;;4.18;1.13;;;;;;;33.37;4.68;99883.06;5091161;28;20114;-70
2022/04/20 06:05:00;;;;;;;3.47;1.20;;;;;;;33.86;4.01;99917.84;5072963;28;20028;-69
2022/04/20 06:07:26;;;;;;;7.15;1.00;;;;;;;33.63;4.23;99908.94;5090989;28;20103;-68
2022/04/20 06:09:52;;;;;;;3.25;1.00;;;;;;;33.88;3.71;99910.06;5091116;28;20107;-67
2022/04/20 06:12:18;;;;;;;6.10;1.30;;;;;;;34.25;4.14;99910.88;5090896;28;20024;-68
2022/04/20 06:14:44;;;;;;;8.82;1.30;;;;;;;33.43;4.24;99911.69;5090221;28;20077;-72
2022/04/20 06:17:09;;;;;;;6.95;1.30;;;;;;;33.58;4.00;99914.50;5090586;28;20035;-67
2022/04/20 06:19:35;;;;;;;7.57;1.48;;;;;;;33.88;4.22;99926.72;5090827;28;20036;-68
2022/04/20 06:22:13;;;;;;;7.65;1.33;;;;;;;34.63;3.71;99932.78;5086982;28;20140;-67
2022/04/20 06:24:38;;;;;;;5.72;1.20;;;;;;;33.79;3.74;99912.56;5088336;28;20032;-69
2022/04/20 06:27:05;;;;;;;6.00;1.15;;;;;;;34.45;3.88;99946.13;5088051;28;20032;-70
2022/04/20 06:29:31;;;;;;;4.05;1.02;;;;;;;34.00;3.92;99950.63;5088203;28;20071;-61
2022/04/20 06:31:57;;;;;;;5.45;1.10;;;;;;;33.85;4.10;99945.88;5088280;28;20067;-61
2022/04/20 06:34:22;;;;;;;2.30;1.00;;;;;;;32.94;4.73;99952.56;5088267;28;20020;-62
2022/04/20 06:36:48;;;;;;;3.80;1.20;;;;;;;32.72;4.62;99934.13;5087923;28;20027;-64
2022/04/20 06:39:13;;;;;;;6.15;0.90;;;;;;;32.98;4.48;99958.41;5086749;28;20181;-64
2022/04/20 06:41:39;;;;;;;5.13;1.08;;;;;;;33.65;4.53;99930.88;5077850;28;20175;-64
2022/04/20 06:44:04;;;;;;;1.15;1.00;;;;;;;34.41;4.21;99939.47;5085474;28;20513;-61
2022/04/20 06:46:30;;;;;;;3.35;1.00;;;;;;;34.09;4.13;99960.06;5067376;28;20029;-61
2022/04/20 06:48:55;;;;;;;3.83;1.13;;;;;;;34.11;4.14;99937.56;5077044;28;20428;-62
2022/04/20 06:51:21;;;;;;;6.57;1.17;;;;;;;34.81;4.64;99934.09;5066748;28;20066;-64
2022/04/20 06:59:15;;;;;;;4.35;1.33;;;;;;;35.72;3.70;99916.38;5081482;28;20467;-62
2022/04/20 07:01:40;;;;;;;5.80;1.17;;;;;;;36.11;3.83;99909.09;5074771;28;20031;-64
2022/04/20 07:04:06;;;;;;;4.28;1.10;;;;;;;36.42;3.91;99911.59;5073658;28;20041;-63
2022/04/20 07:06:32;;;;;;;5.50;1.23;;;;;;;37.18;3.54;99915.72;5077867;28;20020;-64
2022/04/20 07:08:58;;;;;;;2.13;1.23;;;;;;;35.90;3.37;99889.75;5086619;28;20444;-64
2022/04/20 07:11:28;;;;;;;1.98;0.80;;;;;;;36.08;3.33;99906.91;5086911;28;20036;-63
2022/04/20 07:13:57;;;;;;;2.17;1.00;;;;;;;37.77;2.90;99915.41;5087415;28;20434;-64
2022/04/20 07:16:23;;;;;;;5.18;1.02;;;;;;;34.85;3.50;99893.50;5087937;28;20032;-64
2022/04/20 07:18:48;;;;;;;4.45;0.90;;;;;;;35.59;3.58;99898.38;5087157;28;20052;-64
2022/04/20 07:21:14;;;;;;;7.40;1.27;;;;;;;34.96;3.70;99880.34;5086205;28;20127;-63
2022/04/20 07:23:39;;;;;;;4.13;0.93;;;;;;;34.16;3.90;99896.72;5086728;28;20040;-61
2022/04/20 07:26:05;;;;;;;5.35;1.20;;;;;;;34.06;4.45;99882.88;5085442;28;20037;-62
2022/04/20 07:28:31;;;;;;;3.45;1.13;;;;;;;35.79;3.60;99874.28;5082689;28;20432;-62
2022/04/20 07:30:56;;;;;;;5.65;1.25;;;;;;;35.32;3.31;99901.59;5075506;28;20031;-64
2022/04/20 07:33:24;;;;;;;5.82;1.35;;;;;;;34.33;3.66;99870.56;5054757;28;20103;-65
2022/04/20 07:35:49;;;;;;;3.83;0.95;;;;;;;34.94;3.70;99868.69;5035568;28;20086;-67
2022/04/20 07:38:15;;;;;;;3.65;0.90;;;;;;;35.26;3.54;99881.34;5053506;28;20037;-65
2022/04/20 07:40:40;;;;;;;2.78;1.38;;;;;;;34.27;3.90;99888.38;5060977;28;20032;-64
2022/04/20 07:43:06;;;;;;;5.18;1.00;;;;;;;34.07;3.94;99879.78;5055533;28;20028;-63
2022/04/20 07:45:31;;;;;;;4.18;1.00;;;;;;;34.22;3.94;99878.91;5073421;28;20071;-64
2022/04/20 07:47:57;;;;;;;1.85;1.00;;;;;;;35.08;3.50;99868.91;5072798;28;20029;-65
2022/04/20 07:50:24;;;;;;;5.15;0.98;;;;;;;35.60;3.36;99872.19;5073259;28;20060;-63
2022/04/20 07:52:59;;;;;;;3.58;1.17;;;;;;;35.27;3.32;99873.81;5067969;28;20127;-61
2022/04/20 07:55:27;;;;;;;3.58;0.70;;;;;;;34.43;3.19;99903.88;5059755;28;20025;-62
2022/04/20 07:57:57;;;;;;;4.55;0.90;;;;;;;33.10;3.44;99872.19;5048703;28;20044;-63
2022/04/20 08:00:24;;;;;;;7.15;0.90;;;;;;;31.34;3.94;99869.09;5046123;28;20048;-62
2022/04/20 08:02:50;;;;;;;2.90;1.00;;;;;;;30.22;4.63;99898.59;5052492;28;20057;-62
2022/04/20 08:05:17;;;;;;;7.55;0.70;;;;;;;28.98;5.05;99877.09;5063104;28;20166;-62
2022/04/20 08:07:44;;;;;;;2.88;0.88;;;;;;;27.25;5.73;99864.19;5072330;28;20028;-64
2022/04/20 08:10:11;;;;;;;7.07;1.00;;;;;;;25.12;7.58;99864.94;5071956;28;20033;-63
2022/04/20 08:12:43;;;;;;;2.63;0.80;;;;;;;23.43;8.21;99878.00;5068779;28;20077;-62
2022/04/20 08:15:10;;;;;;;6.28;0.95;;;;;;;21.73;9.52;99897.16;5068179;28;20047;-63
2022/04/20 08:17:36;;;;;;;9.88;1.17;;;;;;;20.49;10.40;99875.16;5068762;28;20028;-58
2022/04/20 08:20:04;;;;;;;5.40;1.20;;;;;;;19.49;11.12;99886.09;5055433;28;20032;-63
2022/04/20 08:22:30;;;;;;;7.43;1.10;;;;;;;19.00;11.21;99862.81;5057879;28;20041;-62
2022/04/20 08:24:56;;;;;;;3.53;0.88;;;;;;;17.95;11.96;99864.63;5061593;28;20078;-61
2022/04/20 08:27:22;;;;;;;4.10;0.77;;;;;;;17.80;12.15;99864.47;5071320;28;20037;-62
2022/04/20 08:29:49;;;;;;;7.10;0.88;;;;;;;17.55;12.47;99877.19;5071769;28;20032;-57
2022/04/20 08:32:16;;;;;;;3.50;1.20;;;;;;;17.04;12.90;99865.44;5071867;28;20454;-56
2022/04/20 08:34:43;;;;;;;5.47;0.80;;;;;;;16.86;13.09;99868.22;5071918;28;20059;-56
2022/04/20 08:37:09;;;;;;;6.97;0.90;;;;;;;16.63;13.01;99892.28;5069198;28;20025;-56
2022/04/20 08:39:35;;;;;;;6.38;0.80;;;;;;;16.52;12.65;99838.53;5062306;28;20388;-54
2022/04/20 08:42:01;;;;;;;6.40;0.93;;;;;;;16.08;13.64;99848.44;5067131;28;20047;-61
2022/04/20 08:44:28;;;;;;;5.07;1.00;;;;;;;15.92;13.73;99890.53;5070973;28;20028;-56
2022/04/20 08:47:05;;;;;;;5.55;1.30;;;;;;;16.02;13.24;99885.00;5057408;28;20036;-61
2022/04/20 08:49:31;;;;;;;7.97;1.20;;;;;;;15.79;13.63;99865.75;5050831;28;20425;-60
2022/04/20 08:54:44;;;;;;;9.82;1.20;;;;;;;15.85;13.30;99880.47;5051104;28;20032;-62
2022/04/20 08:57:15;;;;;;;3.65;0.90;;;;;;;15.87;13.15;99851.47;5064288;28;20458;-61
2022/04/20 08:59:48;;;;;;;7.47;1.20;;;;;;;15.72;13.74;99862.81;5071016;28;20027;-59
2022/04/20 09:02:18;;;;;;;4.57;1.05;;;;;;;15.61;13.57;99863.91;5071376;28;20063;-60
2022/04/20 09:04:44;;;;;;;8.23;1.00;;;;;;;15.62;13.44;99891.75;5071106;28;20056;-62
2022/04/20 09:07:11;;;;;;;2.42;0.90;;;;;;;15.82;13.05;99876.22;5070987;28;20033;-62
2022/04/20 09:09:37;;;;;;;2.78;1.10;;;;;;;15.63;13.01;99859.22;5070634;28;20085;-60
2022/04/20 09:12:23;;;;;;;3.05;0.95;;;;;;;15.68;13.35;99877.63;5058974;28;20105;-62
2022/04/20 09:14:50;;;;;;;3.10;0.88;;;;;;;15.63;13.38;99852.97;5050161;28;20119;-61
2022/04/20 09:17:18;;;;;;;2.30;1.00;;;;;;;15.62;13.99;99860.22;5056577;28;20123;-64
2022/04/20 09:19:49;;;;;;;1.50;0.88;;;;;;;15.85;13.66;99861.59;5071134;28;20036;-63
2022/04/20 09:22:25;;;;;;;6.53;1.08;;;;;;;15.95;13.79;99877.72;5070813;28;20040;-60
2022/04/20 09:24:57;;;;;;;5.05;0.82;;;;;;;16.08;13.80;99880.84;5069865;28;20134;-57
2022/04/20 09:27:24;;;;;;;4.53;1.42;;;;;;;16.01;14.05;99858.19;5069939;28;20225;-62
2022/04/20 09:29:57;;;;;;;1.73;1.00;;;;;;;15.98;14.02;99869.28;5070109;28;20431;-62
2022/04/20 09:32:37;;;;;;;1.98;0.90;;;;;;;16.14;13.96;99849.66;5070774;28;20477;-62
2022/04/20 09:35:06;;;;;;;3.33;1.00;;;;;;;15.79;14.76;99855.81;5070855;28;20162;-62
2022/04/20 09:37:32;;;;;;;4.13;1.08;;;;;;;15.80;15.12;99862.03;5069210;28;20334;-62
2022/04/20 09:39:58;;;;;;;7.57;0.90;;;;;;;15.90;14.61;99879.00;5070195;28;20032;-60
2022/04/20 09:42:24;;;;;;;3.17;0.98;;;;;;;16.19;14.62;99863.50;5070242;28;20039;-61
2022/04/20 09:45:04;;;;;;;6.10;0.95;;;;;;;16.25;14.71;99870.13;5070378;28;20430;-61
2022/04/20 09:50:26;;;;;;;7.90;0.73;;;;;;;16.57;14.18;99891.09;5069928;28;20033;-61
2022/04/20 09:52:59;;;;;;;4.28;0.88;;;;;;;16.17;14.26;99871.78;5070194;28;20036;-61
2022/04/20 09:55:32;;;;;;;2.50;0.93;;;;;;;16.01;14.66;99871.69;5070780;28;20028;-63
2022/04/20 09:58:15;;;;;;;2.58;0.88;;;;;;;15.98;14.71;99866.59;5070355;28;20167;-64
2022/04/20 10:00:45;;;;;;;2.03;0.80;;;;;;;16.11;14.59;99858.06;5070071;28;20372;-62
2022/04/20 10:03:21;;;;;;;9.38;1.00;;;;;;;15.87;15.05;99857.69;5052566;28;20056;-63
2022/04/20 10:05:47;;;;;;;2.88;0.90;;;;;;;15.93;15.22;99865.22;5054077;28;20028;-61
2022/04/20 10:08:12;;;;;;;5.32;1.00;;;;;;;16.10;14.94;99851.81;5069933;28;20127;-62
2022/04/20 10:10:38;;;;;;;4.60;1.00;;;;;;;16.02;15.27;99849.06;5059971;28;20078;-60
2022/04/20 10:13:04;;;;;;;3.42;0.98;;;;;;;16.02;15.27;99843.66;5046245;28;20055;-63
2022/04/20 10:18:20;;;;;;;6.57;1.05;;;;;;;16.18;15.30;99854.59;5070076;28;20383;-61
2022/04/20 10:20:49;;;;;;;3.90;1.23;;;;;;;16.49;14.89;99864.00;5070350;28;20057;-63
2022/04/20 10:23:19;;;;;;;1.92;0.77;;;;;;;16.26;15.12;99850.22;5069854;28;20120;-61
2022/04/20 10:25:46;;;;;;;2.08;0.85;;;;;;;16.31;15.07;99840.63;5069983;28;20476;-60
2022/04/20 10:28:33;;;;;;;2.45;0.95;;;;;;;16.21;15.46;99840.75;5069078;28;20380;-55
2022/04/20 10:31:06;;;;;;;12.65;1.40;;;;;;;16.29;15.59;99872.38;5070202;28;20107;-63
2022/04/20 10:33:33;;;;;;;2.75;1.10;;;;;;;16.35;15.57;99857.34;5068432;28;20935;-62
2022/04/20 10:36:00;;;;;;;4.82;1.08;;;;;;;16.37;15.54;99833.72;5065120;28;20032;-59
2022/04/20 10:38:30;;;;;;;1.50;1.10;;;;;;;16.48;15.32;99848.81;5064847;28;20029;-63
2022/04/20 10:41:10;;;;;;;4.13;1.20;;;;;;;16.46;15.58;99843.56;5058502;28;20436;-61
2022/04/20 10:43:41;;;;;;;4.45;0.75;;;;;;;16.65;15.46;99845.16;5063920;28;20031;-65
2022/04/20 10:46:17;;;;;;;3.05;1.13;;;;;;;16.62;15.53;99855.44;5052035;28;20719;-62
2022/04/20 10:48:45;;;;;;;5.22;1.15;;;;;;;16.53;15.47;99841.06;5069829;28;20024;-64
2022/04/20 10:51:17;;;;;;;4.55;1.33;;;;;;;16.32;16.12;99830.66;5070164;28;20460;-63
2022/04/20 10:53:48;;;;;;;5.20;1.15;;;;;;;16.56;15.70;99812.84;5070030;28;20032;-62
2022/04/20 10:56:18;;;;;;;3.80;0.93;;;;;;;16.63;16.08;99832.81;5069740;28;20468;-63
2022/04/20 10:58:52;;;;;;;4.20;0.80;;;;;;;16.86;15.88;99824.97;5069635;28;20036;-64
2022/04/20 11:01:18;;;;;;;3.42;1.00;;;;;;;16.56;16.15;99823.66;5064214;28;20024;-63
2022/04/20 11:03:58;;;;;;;2.83;0.70;;;;;;;17.00;15.59;99842.44;5068621;28;20442;-62
2022/04/20 11:07:00;;;;;;;6.82;1.02;;;;;;;16.52;16.02;99838.53;5043774;28;20039;-60
2022/04/20 11:09:45;;;;;;;3.38;1.08;;;;;;;16.47;16.16;99837.16;4941921;29;20047;-65
2022/04/20 11:21:07;;;;;;;2.10;1.20;;;;;;;16.50;16.39;99847.66;5053293;28;20143;-59
2022/04/20 11:23:58;;;;;;;3.75;1.00;;;;;;;16.59;16.24;99831.44;5053493;28;20500;-62
2022/04/20 11:26:34;;;;;;;3.15;1.00;;;;;;;16.45;16.58;99833.78;5053459;28;20380;-60
2022/04/20 11:29:24;;;;;;;7.53;1.17;;;;;;;16.73;16.37;99824.56;5052974;28;20033;-60
2022/04/20 11:31:51;;;;;;;4.47;1.20;;;;;;;16.61;16.66;99840.25;5052765;28;20029;-63
2022/04/20 11:34:20;;;;;;;9.60;1.48;;;;;;;16.54;16.53;99814.88;5053909;28;20087;-69
2022/04/20 11:36:48;;;;;;;4.60;0.88;;;;;;;17.04;16.05;99822.16;5040776;28;20036;-63
2022/04/20 11:39:15;;;;;;;3.13;0.98;;;;;;;16.46;16.32;99794.94;5042729;28;20031;-62
2022/04/20 11:41:55;;;;;;;3.70;0.93;;;;;;;16.77;16.35;99813.28;5072974;28;20032;-59
2022/04/20 11:44:22;;;;;;;3.35;1.02;;;;;;;16.43;17.04;99803.38;5054982;28;20031;-63
2022/04/20 11:46:49;;;;;;;5.30;1.13;;;;;;;16.61;17.01;99802.41;5065227;28;20047;-61
2022/04/20 11:49:15;;;;;;;8.45;1.27;;;;;;;16.36;16.90;99805.00;5063406;28;20044;-62
2022/04/20 11:52:00;;;;;;;3.15;1.13;;;;;;;16.69;16.43;99815.97;5061133;28;20028;-66
2022/04/20 11:54:31;;;;;;;1.43;1.10;;;;;;;16.53;16.58;99810.50;5061807;28;20029;-59
2022/04/20 11:56:56;;;;;;;3.58;0.80;;;;;;;16.56;16.77;99786.69;5071794;28;20099;-60
2022/04/20 11:59:24;;;;;;;3.15;0.93;;;;;;;16.45;16.93;99779.72;5073303;28;20115;-59
2022/04/20 12:01:50;;;;;;;5.45;1.25;;;;;;;16.43;16.97;99776.34;5064361;28;20028;-65
2022/04/20 12:04:21;;;;;;;1.80;0.98;;;;;;;16.45;16.85;99773.47;5042720;28;20389;-64
2022/04/20 12:06:57;;;;;;;3.30;0.77;;;;;;;16.56;16.61;99777.72;5062927;28;20070;-62
2022/04/20 12:09:29;;;;;;;6.35;0.95;;;;;;;16.33;17.37;99781.03;5062180;28;20029;-62
2022/04/20 12:12:00;;;;;;;2.25;0.90;;;;;;;16.39;17.43;99774.97;5060735;28;20106;-59